createdAt,value
2022-11-15T00:00:28.775Z,0.00
2022-11-15T00:01:23.843Z,0.00
2022-11-15T00:02:18.912Z,0.00
2022-11-15T00:03:13.958Z,0.00
2022-11-15T00:04:09.340Z,0.00
2022-11-15T00:05:04.464Z,0.00
2022-11-15T00:05:59.660Z,0.00
2022-11-15T00:06:54.777Z,0.00
2022-11-15T00:07:55.622Z,0.00
2022-11-15T00:08:46.155Z,0.00
2022-11-15T00:09:45.807Z,0.00
2022-11-15T00:10:37.325Z,0.00
2022-11-15T00:11:31.510Z,0.00
2022-11-15T00:12:26.596Z,0.00
2022-11-15T00:13:21.716Z,0.00
2022-11-15T00:14:16.723Z,0.00
2022-11-15T00:15:11.790Z,0.00
2022-11-15T00:16:06.907Z,0.00
2022-11-15T00:17:01.961Z,0.00
2022-11-15T00:17:57.103Z,0.00
2022-11-15T00:18:57.396Z,0.00
2022-11-15T00:19:52.619Z,0.00
2022-11-15T00:20:48.050Z,0.00
2022-11-15T00:21:43.853Z,0.00
2022-11-15T00:22:38.880Z,0.00
2022-11-15T00:23:34.210Z,0.00
2022-11-15T00:24:30.427Z,0.00
2022-11-15T00:25:25.713Z,0.00
2022-11-15T00:26:21.563Z,0.00
2022-11-15T00:27:16.608Z,0.00
2022-11-15T00:28:11.760Z,0.00
2022-11-15T00:29:07.609Z,0.00
2022-11-15T00:30:02.813Z,0.00
2022-11-15T00:30:58.594Z,0.00
2022-11-15T00:31:53.836Z,0.00
2022-11-15T00:32:49.176Z,0.00
2022-11-15T00:33:44.893Z,0.00
2022-11-15T00:34:40.088Z,0.00
2022-11-15T00:35:35.228Z,0.00
2022-11-15T00:36:31.610Z,0.00
2022-11-15T00:37:26.758Z,0.00
2022-11-15T00:38:22.549Z,0.00
2022-11-15T00:39:17.652Z,0.00
2022-11-15T00:40:12.754Z,0.00
2022-11-15T00:41:09.918Z,0.00
2022-11-15T00:42:03.833Z,0.00
2022-11-15T00:42:59.755Z,0.00
2022-11-15T00:43:54.892Z,0.00
2022-11-15T00:44:50.043Z,0.00
2022-11-15T00:45:45.980Z,0.00
2022-11-15T00:46:41.121Z,0.00
2022-11-15T00:47:36.471Z,0.00
2022-11-15T00:48:32.562Z,0.00
2022-11-15T00:49:27.772Z,0.00
2022-11-15T00:50:23.600Z,0.00
2022-11-15T00:51:18.728Z,0.00
2022-11-15T00:53:40.576Z,0.00
2022-11-15T00:54:33.778Z,0.00
2022-11-15T00:55:29.771Z,0.00
2022-11-15T00:56:24.226Z,0.00
2022-11-15T00:57:19.416Z,0.00
2022-11-15T00:58:14.642Z,0.00
2022-11-15T00:59:09.758Z,0.00
2022-11-15T01:00:05.011Z,0.00
2022-11-15T01:01:00.120Z,0.00
2022-11-15T01:01:55.198Z,0.00
2022-11-15T01:02:50.396Z,0.00
2022-11-15T01:03:45.723Z,0.00
2022-11-15T01:04:40.815Z,0.00
2022-11-15T01:05:36.053Z,0.00
2022-11-15T01:06:31.139Z,0.00
2022-11-15T01:07:26.381Z,0.00
2022-11-15T01:08:21.463Z,0.00
2022-11-15T01:09:16.712Z,0.00
2022-11-15T01:10:11.704Z,0.00
2022-11-15T01:11:06.966Z,0.00
2022-11-15T01:12:02.061Z,0.00
2022-11-15T01:12:57.264Z,0.00
2022-11-15T01:13:52.648Z,0.00
2022-11-15T01:14:47.800Z,0.00
2022-11-15T01:15:42.853Z,0.00
2022-11-15T01:16:37.938Z,0.00
2022-11-15T01:17:33.146Z,0.00
2022-11-15T01:18:28.330Z,0.00
2022-11-15T01:19:23.546Z,0.00
2022-11-15T01:20:18.766Z,0.00
2022-11-15T01:21:13.909Z,0.00
2022-11-15T01:22:09.055Z,0.00
2022-11-15T01:23:04.320Z,0.00
2022-11-15T01:23:59.675Z,0.00
2022-11-15T01:24:54.764Z,0.00
2022-11-15T01:25:49.995Z,0.00
2022-11-15T01:26:45.147Z,0.00
2022-11-15T01:27:40.328Z,0.00
2022-11-15T01:28:35.591Z,0.00
2022-11-15T01:29:30.726Z,0.00
2022-11-15T01:30:26.103Z,0.00
2022-11-15T01:31:21.016Z,0.00
2022-11-15T01:32:16.232Z,0.00
2022-11-15T01:33:11.465Z,0.00
2022-11-15T01:34:06.784Z,0.00
2022-11-15T01:35:01.876Z,0.00
2022-11-15T01:35:57.270Z,0.00
2022-11-15T01:36:52.214Z,0.00
2022-11-15T01:37:47.433Z,0.00
2022-11-15T01:38:42.498Z,0.00
2022-11-15T01:39:37.709Z,0.00
2022-11-15T01:40:32.898Z,0.00
2022-11-15T01:41:28.244Z,0.00
2022-11-15T01:42:23.183Z,0.00
2022-11-15T01:43:18.446Z,0.00
2022-11-15T01:44:13.775Z,0.00
2022-11-15T01:45:08.842Z,0.00
2022-11-15T01:46:04.063Z,0.00
2022-11-15T01:46:59.253Z,0.00
2022-11-15T01:47:54.358Z,0.00
2022-11-15T01:48:49.565Z,0.00
2022-11-15T01:49:44.653Z,0.00
2022-11-15T01:50:39.844Z,0.00
2022-11-15T01:51:35.090Z,0.00
2022-11-15T01:52:30.198Z,0.00
2022-11-15T01:53:25.409Z,0.00
2022-11-15T01:54:20.748Z,0.00
2022-11-15T01:55:15.828Z,0.00
2022-11-15T01:56:11.016Z,0.00
2022-11-15T01:57:06.252Z,0.00
2022-11-15T01:58:02.050Z,0.00
2022-11-15T01:58:56.574Z,0.00
2022-11-15T01:59:51.796Z,0.00
2022-11-15T02:00:47.014Z,0.00
2022-11-15T02:01:42.202Z,0.00
2022-11-15T02:02:37.330Z,0.00
2022-11-15T02:03:32.779Z,0.00
2022-11-15T02:04:27.668Z,0.00
2022-11-15T02:05:22.779Z,0.00
2022-11-15T02:06:17.831Z,0.00
2022-11-15T02:07:13.209Z,0.00
2022-11-15T02:08:08.186Z,0.00
2022-11-15T02:09:03.264Z,0.00
2022-11-15T02:09:58.334Z,0.00
2022-11-15T02:10:53.533Z,0.00
2022-11-15T02:11:48.744Z,0.00
2022-11-15T02:12:43.835Z,0.00
2022-11-15T02:13:38.999Z,0.00
2022-11-15T02:14:34.358Z,0.00
2022-11-15T02:15:29.553Z,0.00
2022-11-15T02:16:24.608Z,0.00
2022-11-15T02:17:19.757Z,0.00
2022-11-15T02:18:15.392Z,0.00
2022-11-15T02:19:10.001Z,0.00
2022-11-15T02:20:05.167Z,0.00
2022-11-15T02:21:00.216Z,0.00
2022-11-15T02:21:55.471Z,0.00
2022-11-15T02:22:51.376Z,0.00
2022-11-15T02:23:45.755Z,0.00
2022-11-15T02:24:40.953Z,0.00
2022-11-15T02:25:36.018Z,0.00
2022-11-15T02:26:31.207Z,0.00
2022-11-15T02:27:26.569Z,0.00
2022-11-15T02:28:21.540Z,0.00
2022-11-15T02:29:16.602Z,0.00
2022-11-15T02:30:11.680Z,0.00
2022-11-15T02:31:06.868Z,0.00
2022-11-15T02:32:02.217Z,0.00
2022-11-15T02:32:57.173Z,0.00
2022-11-15T02:33:52.358Z,0.00
2022-11-15T02:34:47.677Z,0.00
2022-11-15T02:35:42.764Z,0.00
2022-11-15T02:36:37.987Z,0.00
2022-11-15T02:37:33.054Z,0.00
2022-11-15T02:38:28.242Z,0.00
2022-11-15T02:39:23.413Z,0.00
2022-11-15T02:40:19.043Z,0.00
2022-11-15T02:41:13.693Z,0.00
2022-11-15T02:42:08.927Z,0.00
2022-11-15T02:43:08.141Z,0.00
2022-11-15T02:43:59.332Z,0.00
2022-11-15T02:44:54.425Z,0.00
2022-11-15T02:45:49.610Z,0.00
2022-11-15T02:46:45.083Z,0.00
2022-11-15T02:47:40.569Z,0.00
2022-11-15T02:48:35.135Z,0.00
2022-11-15T02:49:30.301Z,0.00
2022-11-15T02:50:25.373Z,0.00
2022-11-15T02:51:20.758Z,0.00
2022-11-15T02:52:15.807Z,0.00
2022-11-15T02:53:10.928Z,0.00
2022-11-15T02:54:06.070Z,0.00
2022-11-15T02:55:01.295Z,0.00
2022-11-15T02:55:56.578Z,0.00
2022-11-15T02:56:51.618Z,0.00
2022-11-15T02:57:46.698Z,0.00
2022-11-15T02:58:41.874Z,0.00
2022-11-15T02:59:37.075Z,0.00
2022-11-15T03:00:32.214Z,0.00
2022-11-15T03:01:27.300Z,0.00
2022-11-15T03:02:23.391Z,0.00
2022-11-15T03:03:17.543Z,0.00
2022-11-15T03:04:13.572Z,0.00
2022-11-15T03:05:07.802Z,0.00
2022-11-15T03:06:02.991Z,0.00
2022-11-15T03:06:58.375Z,0.00
2022-11-15T03:07:56.873Z,0.00
2022-11-15T03:08:49.451Z,0.00
2022-11-15T03:09:43.582Z,0.00
2022-11-15T03:10:38.768Z,0.00
2022-11-15T03:11:34.200Z,0.00
2022-11-15T03:12:29.854Z,0.00
2022-11-15T03:13:24.398Z,0.00
2022-11-15T03:14:19.816Z,0.00
2022-11-15T03:15:15.608Z,0.00
2022-11-15T03:16:10.785Z,0.00
2022-11-15T03:17:05.898Z,0.00
2022-11-15T03:18:01.121Z,0.00
2022-11-15T03:18:57.296Z,0.00
2022-11-15T03:19:51.441Z,0.00
2022-11-15T03:20:46.746Z,0.00
2022-11-15T03:21:41.804Z,0.00
2022-11-15T03:22:36.907Z,0.00
2022-11-15T03:23:32.470Z,0.00
2022-11-15T03:24:27.448Z,0.00
2022-11-15T03:25:22.581Z,0.00
2022-11-15T03:26:18.509Z,0.00
2022-11-15T03:27:13.615Z,0.00
2022-11-15T03:28:08.568Z,0.00
2022-11-15T03:29:04.374Z,0.00
2022-11-15T03:29:59.618Z,0.00
2022-11-15T03:30:54.952Z,0.00
2022-11-15T03:31:51.650Z,0.00
2022-11-15T03:32:46.334Z,0.00
2022-11-15T03:33:42.130Z,0.00
2022-11-15T03:34:37.319Z,0.00
2022-11-15T03:35:32.539Z,0.00
2022-11-15T03:36:28.224Z,0.00
2022-11-15T03:37:23.491Z,0.00
2022-11-15T03:38:19.382Z,0.00
2022-11-15T03:39:20.175Z,0.00
2022-11-15T03:40:10.867Z,0.00
2022-11-15T03:41:05.617Z,0.00
2022-11-15T03:42:00.717Z,0.00
2022-11-15T03:42:55.865Z,0.00
2022-11-15T03:43:52.324Z,0.00
2022-11-15T03:44:47.581Z,0.00
2022-11-15T03:45:43.541Z,0.00
2022-11-15T03:46:38.603Z,0.00
2022-11-15T03:47:33.741Z,0.00
2022-11-15T03:48:29.556Z,0.00
2022-11-15T03:49:24.683Z,0.00
2022-11-15T03:50:20.474Z,0.00
2022-11-15T03:51:15.542Z,0.00
2022-11-15T03:52:10.815Z,0.00
2022-11-15T03:53:06.474Z,0.00
2022-11-15T03:54:01.606Z,0.00
2022-11-15T03:54:56.887Z,0.00
2022-11-15T03:55:53.100Z,0.00
2022-11-15T03:56:48.340Z,0.00
2022-11-15T03:57:44.170Z,0.00
2022-11-15T03:58:39.260Z,0.00
2022-11-15T03:59:34.429Z,0.00
2022-11-15T04:00:30.249Z,0.00
2022-11-15T04:01:25.386Z,0.00
2022-11-15T04:02:21.342Z,0.00
2022-11-15T04:03:16.439Z,0.00
2022-11-15T04:04:11.846Z,0.00
2022-11-15T04:05:07.650Z,0.00
2022-11-15T04:06:02.861Z,0.00
2022-11-15T04:06:58.114Z,0.00
2022-11-15T04:07:54.358Z,0.00
2022-11-15T04:08:49.486Z,0.00
2022-11-15T04:09:45.325Z,0.00
2022-11-15T04:10:40.679Z,0.00
2022-11-15T04:11:36.172Z,0.00
2022-11-15T04:12:31.843Z,0.00
2022-11-15T04:13:26.865Z,0.00
2022-11-15T04:14:22.788Z,0.00
2022-11-15T04:15:17.936Z,0.00
2022-11-15T04:16:13.282Z,0.00
2022-11-15T04:17:08.866Z,0.00
2022-11-15T04:18:04.188Z,0.00
2022-11-15T04:18:59.330Z,0.00
2022-11-15T04:19:55.934Z,0.00
2022-11-15T04:20:51.101Z,0.00
2022-11-15T04:21:46.887Z,0.00
2022-11-15T04:22:42.135Z,0.00
2022-11-15T04:23:37.279Z,0.00
2022-11-15T04:24:33.279Z,0.00
2022-11-15T04:25:32.111Z,0.00
2022-11-15T04:26:23.564Z,0.00
2022-11-15T04:27:18.737Z,0.00
2022-11-15T04:28:13.877Z,0.00
2022-11-15T04:29:08.916Z,0.00
2022-11-15T04:30:03.952Z,0.00
2022-11-15T04:30:59.000Z,0.00
2022-11-15T04:31:53.995Z,0.00
2022-11-15T04:32:48.997Z,0.00
2022-11-15T04:33:44.068Z,0.00
2022-11-15T04:34:39.116Z,0.00
2022-11-15T04:35:34.116Z,0.00
2022-11-15T04:36:29.295Z,0.00
2022-11-15T04:37:24.318Z,0.00
2022-11-15T04:38:19.325Z,0.00
2022-11-15T04:39:14.421Z,0.00
2022-11-15T04:40:09.432Z,0.00
2022-11-15T04:41:04.552Z,0.00
2022-11-15T04:41:59.721Z,0.00
2022-11-15T04:42:57.189Z,0.00
2022-11-15T04:43:50.790Z,0.00
2022-11-15T04:44:44.872Z,0.00
2022-11-15T04:45:40.656Z,0.00
2022-11-15T04:46:35.840Z,0.00
2022-11-15T04:47:30.970Z,0.00
2022-11-15T04:48:26.409Z,0.00
2022-11-15T04:49:21.469Z,0.00
2022-11-15T04:50:16.687Z,0.00
2022-11-15T04:51:12.691Z,0.00
2022-11-15T04:52:07.851Z,0.00
2022-11-15T04:53:03.249Z,0.00
2022-11-15T04:53:58.279Z,0.00
2022-11-15T04:54:53.344Z,0.00
2022-11-15T04:55:48.502Z,0.00
2022-11-15T04:56:43.604Z,0.00
2022-11-15T04:57:38.898Z,0.00
2022-11-15T04:58:34.038Z,0.00
2022-11-15T04:59:32.952Z,0.00
2022-11-15T05:00:28.179Z,0.00
2022-11-15T05:01:23.473Z,0.00
2022-11-15T05:02:18.598Z,0.00
2022-11-15T05:03:13.861Z,0.00
2022-11-15T05:04:09.142Z,0.00
2022-11-15T05:05:04.475Z,0.00
2022-11-15T05:05:59.538Z,0.00
2022-11-15T05:06:54.737Z,0.00
2022-11-15T05:07:50.469Z,0.00
2022-11-15T05:08:45.603Z,0.00
2022-11-15T05:09:41.390Z,0.00
2022-11-15T05:10:36.636Z,0.00
2022-11-15T05:11:31.849Z,0.00
2022-11-15T05:12:27.702Z,0.00
2022-11-15T05:13:22.798Z,0.00
2022-11-15T05:14:17.910Z,0.00
2022-11-15T05:15:14.306Z,0.00
2022-11-15T05:16:09.700Z,0.00
2022-11-15T05:17:05.386Z,0.00
2022-11-15T05:18:00.518Z,0.00
2022-11-15T05:18:56.185Z,0.00
2022-11-15T05:19:51.718Z,0.00
2022-11-15T05:20:46.744Z,0.00
2022-11-15T05:21:42.731Z,0.00
2022-11-15T05:22:37.760Z,0.00
2022-11-15T05:23:33.488Z,0.00
2022-11-15T05:24:29.292Z,0.00
2022-11-15T05:25:24.337Z,0.00
2022-11-15T05:26:19.610Z,0.00
2022-11-15T05:27:15.978Z,0.00
2022-11-15T05:28:11.271Z,0.00
2022-11-15T05:29:07.156Z,0.00
2022-11-15T05:30:02.440Z,0.00
2022-11-15T05:30:57.878Z,0.00
2022-11-15T05:31:53.469Z,0.00
2022-11-15T05:32:48.705Z,0.00
2022-11-15T05:33:44.567Z,0.00
2022-11-15T05:34:39.786Z,0.00
2022-11-15T05:35:35.157Z,0.00
2022-11-15T05:36:30.929Z,0.00
2022-11-15T05:37:26.035Z,0.00
2022-11-15T05:38:21.139Z,0.00
2022-11-15T05:39:17.585Z,0.00
2022-11-15T05:40:12.936Z,0.00
2022-11-15T05:41:08.646Z,0.00
2022-11-15T05:42:03.854Z,0.00
2022-11-15T05:42:59.051Z,0.00
2022-11-15T05:43:55.036Z,1.00
2022-11-15T05:44:50.101Z,1.00
2022-11-15T05:45:45.838Z,1.00
2022-11-15T05:46:40.964Z,0.00
2022-11-15T05:47:36.311Z,0.00
2022-11-15T05:48:31.863Z,0.00
2022-11-15T05:49:27.163Z,1.00
2022-11-15T05:50:22.321Z,0.00
2022-11-15T05:51:18.761Z,1.00
2022-11-15T05:52:13.954Z,1.00
2022-11-15T05:53:09.779Z,1.00
2022-11-15T05:54:04.886Z,1.00
2022-11-15T05:55:00.024Z,2.00
2022-11-15T05:55:55.840Z,2.00
2022-11-15T05:56:51.164Z,3.00
2022-11-15T05:57:47.139Z,3.00
2022-11-15T05:58:43.139Z,4.00
2022-11-15T05:59:37.580Z,4.00
2022-11-15T06:00:33.504Z,5.00
2022-11-15T06:01:28.650Z,5.00
2022-11-15T06:02:23.958Z,7.00
2022-11-15T06:03:20.274Z,8.00
2022-11-15T06:04:15.404Z,10.00
2022-11-15T06:05:11.265Z,11.00
2022-11-15T06:06:06.670Z,14.00
2022-11-15T06:07:02.079Z,16.00
2022-11-15T06:07:57.164Z,19.00
2022-11-15T06:08:52.401Z,22.00
2022-11-15T06:09:48.864Z,25.00
2022-11-15T06:10:44.283Z,30.00
2022-11-15T06:11:39.924Z,35.00
2022-11-15T06:12:35.131Z,42.00
2022-11-15T06:13:30.781Z,41.00
2022-11-15T06:14:26.293Z,54.00
2022-11-15T06:15:22.467Z,73.00
2022-11-15T06:16:17.431Z,74.00
2022-11-15T06:17:12.525Z,87.00
2022-11-15T06:18:07.812Z,107.00
2022-11-15T06:19:03.531Z,116.00
2022-11-15T06:19:58.849Z,143.00
2022-11-15T06:20:54.310Z,161.00
2022-11-15T06:21:50.519Z,182.00
2022-11-15T06:22:45.830Z,193.00
2022-11-15T06:23:42.490Z,219.00
2022-11-15T06:24:38.242Z,234.00
2022-11-15T06:25:32.756Z,257.00
2022-11-15T06:26:27.958Z,278.00
2022-11-15T06:27:23.316Z,297.00
2022-11-15T06:28:18.675Z,329.00
2022-11-15T06:29:15.505Z,369.00
2022-11-15T06:30:10.856Z,358.00
2022-11-15T06:31:07.181Z,415.00
2022-11-15T06:32:01.555Z,412.00
2022-11-15T06:32:56.626Z,442.00
2022-11-15T06:33:51.726Z,478.00
2022-11-15T06:34:46.789Z,477.00
2022-11-15T06:35:41.888Z,506.00
2022-11-15T06:36:36.990Z,561.00
2022-11-15T06:37:32.051Z,573.00
2022-11-15T06:38:27.174Z,651.00
2022-11-15T06:39:22.276Z,708.00
2022-11-15T06:40:19.194Z,689.00
2022-11-15T06:41:14.411Z,792.00
2022-11-15T06:42:09.788Z,801.00
2022-11-15T06:43:05.150Z,875.00
2022-11-15T06:44:00.234Z,917.00
2022-11-15T06:44:55.202Z,980.00
2022-11-15T06:45:50.215Z,1000.00
2022-11-15T06:46:45.223Z,1076.00
2022-11-15T06:47:40.358Z,1150.00
2022-11-15T06:48:35.332Z,1159.00
2022-11-15T06:49:32.613Z,1260.00
2022-11-15T06:50:27.628Z,1306.00
2022-11-15T06:51:22.587Z,1360.00
2022-11-15T06:52:19.721Z,1417.00
2022-11-15T06:53:12.815Z,1465.00
2022-11-15T06:54:08.287Z,1544.00
2022-11-15T06:55:02.765Z,1560.00
2022-11-15T06:55:57.765Z,1666.00
2022-11-15T06:56:52.811Z,1770.00
2022-11-15T06:57:47.806Z,1776.00
2022-11-15T06:58:42.865Z,1860.00
2022-11-15T06:59:40.672Z,1866.00
2022-11-15T07:00:33.233Z,2056.00
2022-11-15T07:01:28.868Z,2069.00
2022-11-15T07:02:24.143Z,2026.00
2022-11-15T07:03:19.587Z,2019.00
2022-11-15T07:04:17.488Z,2072.00
2022-11-15T07:05:12.816Z,2158.00
2022-11-15T07:06:08.262Z,2161.00
2022-11-15T07:07:03.769Z,2149.00
2022-11-15T07:07:59.279Z,2186.00
2022-11-15T07:08:54.819Z,2237.00
2022-11-15T07:09:50.850Z,2457.00
2022-11-15T07:10:44.953Z,2654.00
2022-11-15T07:11:40.021Z,2895.00
2022-11-15T07:12:35.110Z,3055.00
2022-11-15T07:13:30.809Z,3103.00
2022-11-15T07:14:25.317Z,3054.00
2022-11-15T07:15:20.379Z,3038.00
2022-11-15T07:16:15.525Z,3038.00
2022-11-15T07:17:10.574Z,3047.00
2022-11-15T07:18:05.676Z,3146.00
2022-11-15T07:19:00.758Z,3067.00
2022-11-15T07:19:56.077Z,3172.00
2022-11-15T07:20:51.489Z,3594.00
2022-11-15T07:21:47.738Z,3658.00
2022-11-15T07:22:42.391Z,3729.00
2022-11-15T07:23:37.903Z,3756.00
2022-11-15T07:24:33.677Z,4081.00
2022-11-15T07:25:29.295Z,4075.00
2022-11-15T07:26:24.391Z,4198.00
2022-11-15T07:27:19.876Z,4057.00
2022-11-15T07:28:15.324Z,3908.00
2022-11-15T07:29:10.715Z,3787.00
2022-11-15T07:30:06.242Z,3990.00
2022-11-15T07:31:01.723Z,4027.00
2022-11-15T07:31:58.208Z,4006.00
2022-11-15T07:32:53.642Z,3831.00
2022-11-15T07:33:49.173Z,3808.00
2022-11-15T07:34:44.872Z,3806.00
2022-11-15T07:35:40.327Z,3924.00
2022-11-15T07:36:35.879Z,3979.00
2022-11-15T07:37:30.888Z,4075.00
2022-11-15T07:38:25.893Z,4163.00
2022-11-15T07:39:21.378Z,4594.00
2022-11-15T07:40:15.885Z,4759.00
2022-11-15T07:41:10.991Z,4873.00
2022-11-15T07:42:06.166Z,4948.00
2022-11-15T07:43:01.155Z,5017.00
2022-11-15T07:43:56.249Z,5249.00
2022-11-15T07:44:55.295Z,5230.00
2022-11-15T07:45:53.512Z,5312.00
2022-11-15T07:46:46.515Z,5332.00
2022-11-15T07:47:40.707Z,5297.00
2022-11-15T07:48:44.044Z,5456.00
2022-11-15T07:49:33.337Z,5484.00
2022-11-15T07:50:27.790Z,5516.00
2022-11-15T07:51:23.113Z,5418.00
2022-11-15T07:52:18.602Z,5342.00
2022-11-15T07:53:14.173Z,5399.00
2022-11-15T07:54:09.648Z,5438.00
2022-11-15T07:55:05.101Z,5504.00
2022-11-15T07:56:00.470Z,5626.00
2022-11-15T07:56:55.916Z,5592.00
2022-11-15T07:57:51.394Z,5432.00
2022-11-15T07:58:46.827Z,5273.00
2022-11-15T07:59:42.393Z,5176.00
2022-11-15T08:00:37.833Z,5491.00
2022-11-15T08:01:32.936Z,5519.00
2022-11-15T08:02:30.614Z,5611.00
2022-11-15T08:03:23.209Z,5626.00
2022-11-15T08:04:17.987Z,6236.00
2022-11-15T08:05:13.128Z,6085.00
2022-11-15T08:06:08.086Z,6379.00
2022-11-15T08:07:03.330Z,6314.00
2022-11-15T08:07:59.142Z,6319.00
2022-11-15T08:08:54.414Z,6232.00
2022-11-15T08:09:49.395Z,6446.00
2022-11-15T08:10:44.545Z,6153.00
2022-11-15T08:11:40.620Z,5778.00
2022-11-15T08:12:35.929Z,5693.00
2022-11-15T08:13:31.559Z,5766.00
2022-11-15T08:14:26.667Z,6235.00
2022-11-15T08:15:22.894Z,6179.00
2022-11-15T08:16:18.261Z,6238.00
2022-11-15T08:17:13.650Z,6439.00
2022-11-15T08:18:09.052Z,6107.00
2022-11-15T08:19:04.432Z,5983.00
2022-11-15T08:19:59.930Z,5884.00
2022-11-15T08:20:55.351Z,5833.00
2022-11-15T08:21:50.721Z,6075.00
2022-11-15T08:22:46.102Z,6458.00
2022-11-15T08:23:41.476Z,6419.00
2022-11-15T08:24:37.298Z,6595.00
2022-11-15T08:25:31.640Z,6534.00
2022-11-15T08:26:27.610Z,6577.00
2022-11-15T08:27:21.717Z,6537.00
2022-11-15T08:28:16.763Z,6697.00
2022-11-15T08:29:11.874Z,6847.00
2022-11-15T08:30:06.961Z,6937.00
2022-11-15T08:31:04.904Z,6866.00
2022-11-15T08:31:59.650Z,6826.00
2022-11-15T08:32:54.766Z,6738.00
2022-11-15T08:33:49.840Z,6548.00
2022-11-15T08:34:44.944Z,6491.00
2022-11-15T08:35:39.935Z,6882.00
2022-11-15T08:36:44.606Z,6960.00
2022-11-15T08:37:31.108Z,7248.00
2022-11-15T08:38:25.116Z,7359.00
2022-11-15T08:39:20.213Z,7403.00
2022-11-15T08:40:15.274Z,7411.00
2022-11-15T08:41:10.594Z,7414.00
2022-11-15T08:42:05.422Z,7437.00
2022-11-15T08:43:00.552Z,7430.00
2022-11-15T08:43:55.993Z,7665.00
2022-11-15T08:44:51.352Z,7693.00
2022-11-15T08:45:46.762Z,7736.00
2022-11-15T08:46:42.266Z,7773.00
2022-11-15T08:47:37.792Z,7822.00
2022-11-15T08:48:33.504Z,7873.00
2022-11-15T08:49:28.722Z,7948.00
2022-11-15T08:50:24.245Z,7943.00
2022-11-15T08:51:19.472Z,7910.00
2022-11-15T08:52:14.900Z,7835.00
2022-11-15T08:53:10.344Z,7965.00
2022-11-15T08:54:07.413Z,7967.00
2022-11-15T08:55:01.937Z,7995.00
2022-11-15T08:55:57.328Z,8241.00
2022-11-15T08:56:52.711Z,8488.00
2022-11-15T08:57:48.139Z,8682.00
2022-11-15T08:58:43.507Z,9108.00
2022-11-15T08:59:38.984Z,9468.00
2022-11-15T09:00:34.415Z,9762.00
2022-11-15T09:01:30.124Z,9989.00
2022-11-15T09:02:25.636Z,10018.00
2022-11-15T09:03:20.857Z,10038.00
2022-11-15T09:04:15.715Z,9876.00
2022-11-15T09:05:10.807Z,10059.00
2022-11-15T09:06:05.884Z,9973.00
2022-11-15T09:07:01.046Z,9900.00
2022-11-15T09:07:56.036Z,9851.00
2022-11-15T09:08:51.210Z,9932.00
2022-11-15T09:09:48.559Z,9632.00
2022-11-15T09:10:43.952Z,9582.00
2022-11-15T09:11:39.405Z,9657.00
2022-11-15T09:12:34.905Z,9929.00
2022-11-15T09:13:30.408Z,9419.00
2022-11-15T09:14:25.895Z,10154.00
2022-11-15T09:15:21.335Z,10024.00
2022-11-15T09:16:16.719Z,10671.00
2022-11-15T09:17:12.213Z,10797.00
2022-11-15T09:18:07.629Z,10883.00
2022-11-15T09:19:06.416Z,10877.00
2022-11-15T09:19:59.540Z,10846.00
2022-11-15T09:20:54.000Z,10730.00
2022-11-15T09:21:49.469Z,10828.00
2022-11-15T09:22:45.275Z,11146.00
2022-11-15T09:23:40.327Z,11352.00
2022-11-15T09:24:35.321Z,12049.00
2022-11-15T09:25:30.342Z,12188.00
2022-11-15T09:26:25.436Z,10599.00
2022-11-15T09:27:20.477Z,11182.00
2022-11-15T09:28:15.637Z,7981.00
2022-11-15T09:29:10.651Z,7636.00
2022-11-15T09:30:05.726Z,6983.00
2022-11-15T09:31:00.711Z,6861.00
2022-11-15T09:31:55.837Z,6077.00
2022-11-15T09:32:50.902Z,5700.00
2022-11-15T09:33:46.025Z,5528.00
2022-11-15T09:34:41.088Z,5449.00
2022-11-15T09:35:36.122Z,5319.00
2022-11-15T09:36:31.227Z,5445.00
2022-11-15T09:37:27.165Z,5475.00
2022-11-15T09:38:21.434Z,8805.00
2022-11-15T09:39:16.530Z,8944.00
2022-11-15T09:40:11.712Z,8948.00
2022-11-15T09:41:07.533Z,9119.00
2022-11-15T09:42:02.381Z,8949.00
2022-11-15T09:42:58.256Z,9132.00
2022-11-15T09:43:53.743Z,9256.00
2022-11-15T09:44:49.269Z,9360.00
2022-11-15T09:45:44.810Z,9525.00
2022-11-15T09:46:41.022Z,9578.00
2022-11-15T09:47:35.649Z,9152.00
2022-11-15T09:48:31.384Z,9259.00
2022-11-15T09:49:26.612Z,9796.00
2022-11-15T09:50:21.882Z,10338.00
2022-11-15T09:51:17.381Z,10080.00
2022-11-15T09:52:12.727Z,11004.00
2022-11-15T09:53:07.759Z,11365.00
2022-11-15T09:54:45.488Z,10547.00
2022-11-15T09:54:58.800Z,11464.00
2022-11-15T09:55:52.865Z,10399.00
2022-11-15T09:56:47.920Z,9944.00
2022-11-15T09:57:43.097Z,10954.00
2022-11-15T09:58:37.994Z,11432.00
2022-11-15T09:59:33.069Z,11292.00
2022-11-15T10:01:24.189Z,11104.00
2022-11-15T10:02:22.278Z,11137.00
2022-11-15T10:03:17.333Z,11237.00
2022-11-15T10:04:12.773Z,11446.00
2022-11-15T10:05:08.233Z,11280.00
2022-11-15T10:06:03.640Z,11382.00
2022-11-15T10:06:59.287Z,10951.00
2022-11-15T10:07:54.555Z,10719.00
2022-11-15T10:08:50.090Z,10961.00
2022-11-15T10:09:45.503Z,11409.00
2022-11-15T10:10:40.942Z,10609.00
2022-11-15T10:11:38.120Z,11353.00
2022-11-15T10:12:31.840Z,11034.00
2022-11-15T10:13:27.161Z,10605.00
2022-11-15T10:14:22.578Z,10539.00
2022-11-15T10:15:18.058Z,10962.00
2022-11-15T10:16:13.172Z,11026.00
2022-11-15T10:17:08.188Z,10209.00
2022-11-15T10:18:03.233Z,10554.00
2022-11-15T10:18:58.337Z,10672.00
2022-11-15T10:19:53.458Z,10489.00
2022-11-15T10:20:48.507Z,10858.00
2022-11-15T10:21:44.180Z,11081.00
2022-11-15T10:22:39.201Z,11663.00
2022-11-15T10:23:33.677Z,12655.00
2022-11-15T10:24:29.356Z,13557.00
2022-11-15T10:25:25.201Z,14560.00
2022-11-15T10:26:20.342Z,15387.00
2022-11-15T10:27:15.672Z,15336.00
2022-11-15T10:28:10.713Z,15353.00
2022-11-15T10:29:06.553Z,14880.00
2022-11-15T10:30:02.054Z,16112.00
2022-11-15T10:30:57.604Z,16456.00
2022-11-15T10:31:53.150Z,17136.00
2022-11-15T10:32:48.457Z,16192.00
2022-11-15T10:33:43.864Z,15810.00
2022-11-15T10:36:04.230Z,14822.00
2022-11-15T10:36:59.554Z,14890.00
2022-11-15T10:37:54.986Z,14719.00
2022-11-15T10:38:50.424Z,14637.00
2022-11-15T10:39:45.876Z,14111.00
2022-11-15T10:40:41.283Z,14028.00
2022-11-15T10:41:36.731Z,13059.00
2022-11-15T10:42:32.151Z,12330.00
2022-11-15T10:43:27.570Z,11256.00
2022-11-15T10:44:23.037Z,10472.00
2022-11-15T10:45:18.457Z,9808.00
2022-11-15T10:46:44.521Z,9291.00
2022-11-15T10:47:10.611Z,9019.00
2022-11-15T10:48:05.141Z,8952.00
2022-11-15T10:49:00.749Z,8885.00
2022-11-15T10:49:56.423Z,8891.00
2022-11-15T10:50:51.790Z,8773.00
2022-11-15T10:51:47.303Z,8784.00
2022-11-15T10:52:42.660Z,8597.00
2022-11-15T10:53:38.606Z,8424.00
2022-11-15T10:54:33.478Z,8340.00
2022-11-15T10:55:28.865Z,8211.00
2022-11-15T10:56:24.315Z,7994.00
2022-11-15T10:57:19.616Z,7914.00
2022-11-15T10:58:15.016Z,7798.00
2022-11-15T10:59:10.556Z,7838.00
2022-11-15T11:00:06.214Z,8119.00
2022-11-15T11:01:01.640Z,7919.00
2022-11-15T11:01:57.114Z,7829.00
2022-11-15T11:02:52.639Z,7919.00
2022-11-15T11:03:48.159Z,8207.00
2022-11-15T11:04:43.636Z,8163.00
2022-11-15T11:05:42.172Z,8160.00
2022-11-15T11:06:34.531Z,8287.00
2022-11-15T11:07:30.311Z,8102.00
2022-11-15T11:08:25.507Z,8290.00
2022-11-15T11:09:20.991Z,8457.00
2022-11-15T11:10:44.191Z,8638.00
2022-11-15T11:11:13.065Z,7858.00
2022-11-15T11:12:07.526Z,8291.00
2022-11-15T11:13:03.061Z,8288.00
2022-11-15T11:13:58.445Z,8528.00
2022-11-15T11:14:53.866Z,8417.00
2022-11-15T11:15:49.288Z,5463.00
2022-11-15T11:16:44.689Z,7893.00
2022-11-15T11:17:40.372Z,7783.00
2022-11-15T11:18:35.779Z,8407.00
2022-11-15T11:19:31.187Z,8426.00
2022-11-15T11:20:26.700Z,8278.00
2022-11-15T11:21:25.671Z,8319.00
2022-11-15T11:22:18.518Z,8354.00
2022-11-15T11:23:12.933Z,8398.00
2022-11-15T11:24:08.450Z,8448.00
2022-11-15T11:25:03.917Z,8420.00
2022-11-15T11:26:00.095Z,8292.00
2022-11-15T11:26:57.169Z,8281.00
2022-11-15T11:27:50.558Z,8185.00
2022-11-15T11:28:46.121Z,8213.00
2022-11-15T11:29:41.539Z,8109.00
2022-11-15T11:30:36.915Z,7904.00
2022-11-15T11:31:32.397Z,7909.00
2022-11-15T11:32:27.897Z,8015.00
2022-11-15T11:33:23.536Z,7797.00
2022-11-15T11:34:19.020Z,7577.00
2022-11-15T11:35:14.495Z,7364.00
2022-11-15T11:36:10.130Z,7599.00
2022-11-15T11:37:06.178Z,7384.00
2022-11-15T11:38:01.099Z,7365.00
2022-11-15T11:38:56.584Z,7086.00
2022-11-15T11:39:52.017Z,7085.00
2022-11-15T11:40:47.451Z,6694.00
2022-11-15T11:41:42.960Z,6929.00
2022-11-15T11:42:38.443Z,7873.00
2022-11-15T11:43:33.997Z,8262.00
2022-11-15T11:44:30.231Z,8207.00
2022-11-15T11:45:24.904Z,8172.00
2022-11-15T11:46:20.477Z,7972.00